Time;durP1;ratioP1;P1;durP2;ratioP2;P2;SDS_P1;SDS_P2;PMS_P1;PMS_P2;Temp;Humidity;BMP_temperature;BMP_pressure;BME280_temperature;BME280_humidity;BME280_pressure;Samples;Min_cycle;Max_cycle;Signal;HPM_P1;HPM_P2
2022/10/06 00:01:34;;;;;;;14.43;3.95;;;11.30;99.90;;;;;;5054537;28;20086;-65
2022/10/06 00:04:01;;;;;;;16.38;3.88;;;11.40;99.90;;;;;;5054543;28;20056;-64
2022/10/06 00:06:28;;;;;;;11.73;4.47;;;11.30;99.90;;;;;;5054882;28;20461;-64
2022/10/06 00:08:55;;;;;;;15.82;4.30;;;11.30;99.90;;;;;;5054770;28;20044;-64
2022/10/06 00:11:21;;;;;;;15.77;4.10;;;11.30;99.90;;;;;;5055648;28;20523;-65
2022/10/06 00:13:48;;;;;;;12.57;3.05;;;11.30;99.90;;;;;;5055923;28;20514;-65
2022/10/06 00:16:17;;;;;;;13.43;4.32;;;11.30;99.90;;;;;;5055860;28;20071;-65
2022/10/06 00:18:44;;;;;;;15.15;3.97;;;11.30;99.90;;;;;;5054597;28;20068;-65
2022/10/06 00:21:11;;;;;;;12.73;4.03;;;11.30;99.90;;;;;;5054830;28;20045;-65
2022/10/06 00:23:38;;;;;;;12.45;3.97;;;11.20;99.90;;;;;;5055702;28;20048;-65
2022/10/06 00:26:08;;;;;;;15.75;3.67;;;11.20;99.90;;;;;;5054316;28;20563;-64
2022/10/06 00:28:35;;;;;;;15.23;3.63;;;11.20;99.90;;;;;;5038202;28;20048;-64
2022/10/06 00:31:02;;;;;;;15.20;3.83;;;11.20;99.90;;;;;;5053758;28;20059;-64
2022/10/06 00:33:29;;;;;;;13.48;3.17;;;11.20;99.90;;;;;;5055094;28;20049;-65
2022/10/06 00:35:57;;;;;;;12.52;3.50;;;11.10;99.90;;;;;;5054234;28;20415;-65
2022/10/06 00:38:24;;;;;;;10.77;3.67;;;11.10;99.90;;;;;;5037821;28;20048;-65
2022/10/06 00:40:51;;;;;;;16.25;4.07;;;11.10;99.90;;;;;;5053858;28;20079;-65
2022/10/06 00:43:39;;;;;;;14.90;4.32;;;11.10;99.90;;;;;;5055313;28;20428;-64
2022/10/06 00:46:08;;;;;;;12.03;3.47;;;11.00;99.90;;;;;;5055575;28;20111;-65
2022/10/06 00:48:35;;;;;;;11.48;3.78;;;11.00;99.90;;;;;;5053730;28;20473;-65
2022/10/06 00:51:02;;;;;;;10.82;3.13;;;11.00;99.90;;;;;;5053672;28;20061;-65
2022/10/06 00:53:29;;;;;;;11.63;3.35;;;11.00;99.90;;;;;;5037191;28;20044;-65
2022/10/06 00:55:56;;;;;;;9.65;3.70;;;11.00;99.90;;;;;;5053643;28;20378;-65
2022/10/06 00:58:23;;;;;;;15.25;3.97;;;11.00;99.90;;;;;;5053541;28;20044;-65
2022/10/06 01:00:54;;;;;;;10.90;3.38;;;11.00;99.90;;;;;;5037157;28;20049;-64
2022/10/06 01:03:26;;;;;;;13.52;4.60;;;10.90;99.90;;;;;;5037697;28;20465;-64
2022/10/06 01:05:53;;;;;;;11.48;3.50;;;10.90;99.90;;;;;;5054525;28;20044;-64
2022/10/06 01:08:20;;;;;;;11.05;3.00;;;10.90;99.90;;;;;;5036880;28;20106;-64
2022/10/06 01:10:47;;;;;;;15.70;3.75;;;10.90;99.90;;;;;;5053641;28;20057;-65
2022/10/06 01:13:14;;;;;;;11.80;3.60;;;10.80;99.90;;;;;;5036800;28;20045;-64
2022/10/06 01:15:49;;;;;;;11.63;3.42;;;10.80;99.90;;;;;;5053559;28;20071;-64
2022/10/06 01:18:17;;;;;;;19.92;4.63;;;10.80;99.90;;;;;;5053736;28;20044;-65
2022/10/06 01:20:50;;;;;;;11.32;2.90;;;10.80;99.90;;;;;;5053465;28;20037;-65
2022/10/06 01:23:17;;;;;;;12.95;3.58;;;10.70;99.90;;;;;;5054123;28;20048;-65
2022/10/06 01:25:44;;;;;;;13.98;4.18;;;10.70;99.90;;;;;;5053067;28;20114;-65
2022/10/06 01:28:11;;;;;;;11.43;3.58;;;10.60;99.90;;;;;;5054083;28;20036;-64
2022/10/06 01:30:40;;;;;;;9.35;3.15;;;10.70;99.90;;;;;;5052980;28;20499;-64
2022/10/06 01:33:07;;;;;;;15.38;4.45;;;10.60;99.90;;;;;;5053196;28;20477;-64
2022/10/06 01:35:34;;;;;;;16.10;3.53;;;10.60;99.90;;;;;;5053181;28;20443;-64
2022/10/06 01:38:01;;;;;;;15.27;3.88;;;10.60;99.90;;;;;;5052778;28;20041;-64
2022/10/06 01:40:28;;;;;;;15.18;4.00;;;10.60;99.90;;;;;;5054314;28;20045;-65
2022/10/06 01:42:55;;;;;;;14.40;3.08;;;10.50;99.90;;;;;;5051848;28;20535;-64
2022/10/06 01:45:22;;;;;;;14.38;2.90;;;10.50;99.90;;;;;;5037321;28;20045;-64
2022/10/06 01:47:49;;;;;;;10.60;3.15;;;10.40;99.90;;;;;;5054369;28;20041;-64
2022/10/06 01:50:16;;;;;;;12.07;2.92;;;10.40;99.90;;;;;;5053847;28;20082;-64
2022/10/06 01:52:43;;;;;;;11.57;3.60;;;10.40;99.90;;;;;;5052854;28;20052;-65
2022/10/06 01:55:09;;;;;;;10.27;3.17;;;10.30;99.90;;;;;;5054163;28;20049;-64
2022/10/06 01:57:40;;;;;;;10.57;3.05;;;10.30;99.90;;;;;;5052762;28;20049;-65
2022/10/06 02:00:08;;;;;;;10.32;3.15;;;10.30;99.90;;;;;;5036243;28;20045;-64
2022/10/06 02:02:34;;;;;;;11.68;3.33;;;10.20;99.90;;;;;;5053449;28;20045;-64
2022/10/06 02:05:02;;;;;;;11.93;3.70;;;10.20;99.90;;;;;;5052632;28;20049;-64
2022/10/06 02:07:29;;;;;;;9.90;3.75;;;10.20;99.90;;;;;;5052292;28;20052;-64
2022/10/06 02:09:55;;;;;;;14.18;2.78;;;10.20;99.90;;;;;;5053472;28;20045;-64
2022/10/06 02:12:22;;;;;;;13.73;3.22;;;10.10;99.90;;;;;;5052328;28;20056;-64
2022/10/06 02:14:49;;;;;;;17.65;3.63;;;10.10;99.90;;;;;;5052494;28;20114;-64
2022/10/06 02:17:16;;;;;;;6.85;2.35;;;10.10;99.90;;;;;;5053259;28;20481;-65
2022/10/06 02:19:43;;;;;;;15.75;5.57;;;10.10;99.90;;;;;;5052073;28;20492;-64
2022/10/06 02:22:10;;;;;;;17.42;3.55;;;10.10;99.90;;;;;;5053046;28;20053;-65
2022/10/06 02:24:37;;;;;;;15.75;3.35;;;10.10;99.90;;;;;;5053088;28;20036;-64
2022/10/06 02:27:04;;;;;;;13.80;3.13;;;10.10;99.90;;;;;;5053656;28;20526;-64
2022/10/06 02:29:31;;;;;;;12.27;2.63;;;10.00;99.90;;;;;;5053005;28;20053;-64
2022/10/06 02:31:58;;;;;;;12.15;3.78;;;10.00;99.90;;;;;;5035729;28;20056;-64
2022/10/06 02:34:25;;;;;;;9.32;3.25;;;10.00;99.90;;;;;;5051860;28;20535;-64
2022/10/06 02:36:52;;;;;;;12.27;4.18;;;10.00;99.90;;;;;;5051838;28;20083;-64
2022/10/06 02:39:19;;;;;;;14.50;4.57;;;10.00;99.90;;;;;;5053662;28;20045;-64
2022/10/06 02:41:46;;;;;;;7.68;2.95;;;10.00;99.90;;;;;;5053592;28;20052;-64
2022/10/06 02:44:13;;;;;;;13.85;3.22;;;10.00;99.90;;;;;;5035566;28;20147;-64
2022/10/06 02:46:40;;;;;;;12.00;3.15;;;10.00;99.90;;;;;;5052788;28;20041;-64
2022/10/06 02:49:07;;;;;;;12.23;3.28;;;10.00;99.90;;;;;;5052057;28;20041;-64
2022/10/06 02:51:34;;;;;;;14.07;3.40;;;9.90;99.90;;;;;;5051984;28;20048;-65
2022/10/06 02:54:01;;;;;;;13.02;3.42;;;9.90;99.90;;;;;;5057284;28;20086;-64
2022/10/06 02:56:28;;;;;;;14.25;3.38;;;9.90;99.90;;;;;;5059118;28;20040;-64
2022/10/06 02:58:55;;;;;;;6.75;2.38;;;9.90;99.90;;;;;;5059792;28;20145;-64
2022/10/06 03:01:24;;;;;;;9.38;3.65;;;9.90;99.90;;;;;;5058580;28;20049;-64
2022/10/06 03:03:51;;;;;;;12.30;4.15;;;9.90;99.90;;;;;;5058464;28;20045;-64
2022/10/06 03:06:21;;;;;;;11.02;2.25;;;9.90;99.90;;;;;;5059252;28;20044;-64
2022/10/06 03:08:48;;;;;;;9.48;2.55;;;9.90;99.90;;;;;;5059350;28;20095;-64
2022/10/06 03:11:18;;;;;;;12.35;3.45;;;9.80;99.90;;;;;;5060229;28;20102;-64
2022/10/06 03:13:48;;;;;;;13.13;3.70;;;9.90;99.90;;;;;;5058186;28;20040;-64
2022/10/06 03:16:19;;;;;;;10.88;3.00;;;9.80;99.90;;;;;;5058454;28;20099;-64
2022/10/06 03:18:48;;;;;;;9.40;3.00;;;9.80;99.90;;;;;;5059004;28;20044;-65
2022/10/06 03:21:15;;;;;;;10.75;3.30;;;9.80;99.90;;;;;;5042159;28;20053;-64
2022/10/06 03:23:42;;;;;;;10.88;4.03;;;9.80;99.90;;;;;;5060304;28;20415;-64
2022/10/06 03:26:10;;;;;;;9.38;2.72;;;9.80;99.90;;;;;;5058895;28;20052;-64
2022/10/06 03:28:38;;;;;;;7.57;2.50;;;9.80;99.90;;;;;;5042327;28;20045;-64
2022/10/06 03:31:05;;;;;;;10.07;2.80;;;9.80;99.90;;;;;;5060054;28;20374;-64
2022/10/06 03:33:33;;;;;;;11.88;2.70;;;9.80;99.90;;;;;;5059060;28;20083;-64
2022/10/06 03:36:01;;;;;;;12.75;2.92;;;9.80;99.90;;;;;;5059074;28;20094;-64
2022/10/06 03:38:31;;;;;;;11.13;3.33;;;9.80;99.90;;;;;;5059458;28;20440;-64
2022/10/06 03:41:03;;;;;;;9.55;2.28;;;9.80;99.90;;;;;;5057967;28;20041;-64
2022/10/06 03:43:30;;;;;;;8.32;2.80;;;9.70;99.90;;;;;;5057781;28;20037;-65
2022/10/06 03:46:00;;;;;;;13.82;3.42;;;9.70;99.90;;;;;;5059039;28;20040;-65
2022/10/06 03:48:28;;;;;;;9.80;3.13;;;9.70;99.90;;;;;;5041684;28;20079;-64
2022/10/06 03:51:12;;;;;;;8.93;2.25;;;9.70;99.90;;;;;;5058070;28;20064;-64
2022/10/06 03:53:39;;;;;;;13.57;2.90;;;9.60;99.90;;;;;;5057798;28;20048;-64
2022/10/06 03:56:16;;;;;;;11.70;2.72;;;9.50;99.90;;;;;;5057757;28;20094;-64
2022/10/06 03:58:44;;;;;;;10.90;3.85;;;9.50;99.90;;;;;;5057854;28;20041;-64
2022/10/06 04:01:17;;;;;;;10.70;2.92;;;9.40;99.90;;;;;;5041160;28;20049;-64
2022/10/06 04:03:50;;;;;;;12.63;3.58;;;9.40;99.90;;;;;;5041759;28;20067;-64
2022/10/06 04:06:18;;;;;;;8.88;2.78;;;9.30;99.90;;;;;;5054732;28;20102;-64
2022/10/06 04:08:46;;;;;;;11.30;2.33;;;9.30;99.90;;;;;;5054834;28;20432;-64
2022/10/06 04:11:15;;;;;;;11.63;2.50;;;9.30;99.90;;;;;;5054406;28;20049;-65
2022/10/06 04:13:42;;;;;;;12.60;3.20;;;9.20;99.90;;;;;;5054764;28;20084;-64
2022/10/06 04:16:20;;;;;;;12.23;3.25;;;9.20;99.90;;;;;;5054608;28;20473;-64
2022/10/06 04:18:51;;;;;;;15.02;3.72;;;9.20;99.90;;;;;;5038737;28;20041;-68
2022/10/06 04:21:19;;;;;;;41.25;26.52;;;9.20;99.90;;;;;;5054608;28;20384;-64
2022/10/06 04:23:45;;;;;;;23.65;13.07;;;9.20;99.90;;;;;;5055119;28;20049;-66
2022/10/06 04:26:14;;;;;;;16.80;6.25;;;9.20;99.90;;;;;;5055344;28;20095;-65
2022/10/06 04:28:42;;;;;;;18.10;3.50;;;9.10;99.90;;;;;;5037702;28;20422;-64
2022/10/06 04:31:14;;;;;;;9.90;2.80;;;9.10;99.90;;;;;;5055105;28;20611;-64
2022/10/06 04:33:42;;;;;;;11.48;2.80;;;9.10;99.90;;;;;;5055206;28;20544;-64
2022/10/06 04:36:11;;;;;;;13.77;2.83;;;9.10;99.90;;;;;;5054342;28;20382;-64
2022/10/06 04:38:38;;;;;;;13.98;3.33;;;9.00;99.90;;;;;;5054728;28;20075;-64
2022/10/06 04:41:07;;;;;;;9.80;2.92;;;9.00;99.90;;;;;;5053931;28;20400;-64
2022/10/06 04:43:34;;;;;;;9.95;3.15;;;9.00;99.90;;;;;;5055320;28;20045;-64
2022/10/06 04:46:01;;;;;;;10.70;2.72;;;9.00;99.90;;;;;;5055334;28;20431;-64
2022/10/06 04:48:52;;;;;;;17.92;3.58;;;8.90;99.90;;;;;;5054698;28;20427;-64
2022/10/06 04:51:20;;;;;;;12.40;3.42;;;8.90;99.90;;;;;;5037651;28;20048;-64
2022/10/06 04:53:47;;;;;;;8.10;3.03;;;8.90;99.90;;;;;;5054003;28;20044;-64
2022/10/06 04:56:19;;;;;;;16.05;4.13;;;8.90;99.90;;;;;;5037031;28;20056;-64
2022/10/06 04:58:47;;;;;;;12.40;2.45;;;8.90;99.90;;;;;;5054450;28;20045;-64
2022/10/06 05:01:18;;;;;;;12.20;2.83;;;8.90;99.90;;;;;;5053835;28;20378;-64
2022/10/06 05:03:45;;;;;;;11.68;3.78;;;8.90;99.90;;;;;;5054674;28;20128;-64
2022/10/06 05:06:20;;;;;;;10.43;2.72;;;8.90;99.90;;;;;;5054957;28;20107;-64
2022/10/06 05:08:55;;;;;;;14.73;2.72;;;8.90;99.90;;;;;;5054318;28;20045;-64
2022/10/06 05:11:22;;;;;;;14.27;3.33;;;8.90;99.90;;;;;;5054252;28;20041;-64
2022/10/06 05:13:53;;;;;;;16.80;4.15;;;8.90;99.90;;;;;;5037492;28;20049;-64
2022/10/06 05:16:20;;;;;;;10.93;3.17;;;8.90;99.90;;;;;;5052105;28;20477;-64
2022/10/06 05:18:47;;;;;;;14.55;3.65;;;8.90;99.90;;;;;;5054705;28;20049;-64
2022/10/06 05:21:35;;;;;;;10.38;3.05;;;8.90;99.90;;;;;;5053123;28;20131;-64
2022/10/06 05:24:02;;;;;;;11.77;3.03;;;8.90;99.90;;;;;;5053887;28;20041;-64
2022/10/06 05:26:30;;;;;;;11.65;3.00;;;8.90;99.90;;;;;;5037179;28;20361;-64
2022/10/06 05:28:57;;;;;;;12.50;2.97;;;8.90;99.90;;;;;;5052959;28;20045;-64
2022/10/06 05:31:28;;;;;;;9.20;2.50;;;8.90;99.90;;;;;;5053930;28;20443;-64
2022/10/06 05:33:56;;;;;;;8.10;3.08;;;8.90;99.90;;;;;;5052921;28;20053;-64
2022/10/06 05:36:25;;;;;;;10.32;2.88;;;8.80;99.90;;;;;;5036475;28;20055;-64
2022/10/06 05:38:52;;;;;;;9.38;2.60;;;8.80;99.90;;;;;;5036295;28;20080;-64
2022/10/06 05:41:21;;;;;;;13.02;2.88;;;8.80;99.90;;;;;;5053941;28;20112;-64
2022/10/06 05:43:48;;;;;;;14.68;3.95;;;8.80;99.90;;;;;;5052887;28;20048;-64
2022/10/06 05:46:22;;;;;;;14.80;3.30;;;8.80;99.90;;;;;;5036768;28;20057;-64
2022/10/06 05:48:50;;;;;;;11.95;3.60;;;8.70;99.90;;;;;;5052665;28;20040;-64
2022/10/06 05:51:18;;;;;;;11.30;3.28;;;8.70;99.90;;;;;;5053589;28;20040;-64
2022/10/06 05:53:46;;;;;;;12.10;3.10;;;8.70;99.90;;;;;;5052795;28;20049;-64
2022/10/06 05:56:14;;;;;;;13.43;2.70;;;8.70;99.90;;;;;;5053714;28;20048;-64
2022/10/06 05:58:42;;;;;;;14.85;3.00;;;8.60;99.90;;;;;;5053475;28;20049;-64
2022/10/06 06:01:10;;;;;;;15.65;3.45;;;8.70;99.90;;;;;;5052303;28;20477;-64
2022/10/06 06:03:38;;;;;;;14.07;2.70;;;8.60;99.90;;;;;;5053405;28;20543;-64
2022/10/06 06:06:23;;;;;;;11.68;2.40;;;8.60;99.90;;;;;;5052509;28;20102;-64
2022/10/06 06:09:00;;;;;;;12.15;2.50;;;8.60;99.90;;;;;;5052579;28;20049;-64
2022/10/06 06:11:30;;;;;;;15.07;3.45;;;8.60;99.90;;;;;;5052103;28;20431;-64
2022/10/06 06:14:04;;;;;;;10.73;3.05;;;8.60;99.90;;;;;;5053222;28;20106;-64
2022/10/06 06:16:31;;;;;;;11.65;3.58;;;8.70;99.90;;;;;;5053010;28;20041;-64
2022/10/06 06:18:59;;;;;;;11.30;2.85;;;8.60;99.90;;;;;;5052076;28;20041;-64
2022/10/06 06:21:26;;;;;;;11.00;4.30;;;8.60;99.90;;;;;;5053057;28;20095;-65
2022/10/06 06:23:53;;;;;;;15.90;8.07;;;8.60;99.90;;;;;;5035552;28;20041;-65
2022/10/06 06:26:25;;;;;;;36.25;21.77;;;8.60;99.90;;;;;;5053180;28;20048;-65
2022/10/06 06:28:53;;;;;;;24.98;10.02;;;8.60;99.90;;;;;;5052095;28;20048;-65
2022/10/06 06:31:25;;;;;;;18.10;6.57;;;8.70;99.90;;;;;;5052339;28;20045;-65
2022/10/06 06:33:55;;;;;;;13.98;6.07;;;8.70;99.90;;;;;;5052920;28;20420;-65
2022/10/06 06:36:26;;;;;;;11.73;3.30;;;8.70;99.90;;;;;;5051905;28;20090;-65
2022/10/06 06:38:56;;;;;;;12.25;3.22;;;8.60;99.90;;;;;;5053671;28;20044;-62
2022/10/06 06:41:25;;;;;;;19.13;4.78;;;8.60;99.90;;;;;;5052899;28;20094;-64
2022/10/06 06:43:52;;;;;;;13.65;3.92;;;8.70;99.90;;;;;;5035859;28;20045;-64
2022/10/06 06:46:22;;;;;;;99.88;66.28;;;8.70;99.90;;;;;;5052305;28;20049;-63
2022/10/06 06:48:50;;;;;;;147.93;102.75;;;8.80;99.90;;;;;;5068238;28;20041;-73
2022/10/06 06:51:21;;;;;;;35.03;21.45;;;8.80;99.90;;;;;;5035481;28;20087;-73
2022/10/06 06:53:51;;;;;;;16.70;9.30;;;8.80;99.90;;;;;;5037009;28;20102;-69
2022/10/06 06:56:18;;;;;;;13.15;5.15;;;8.80;99.90;;;;;;5052282;28;20111;-69
2022/10/06 06:58:46;;;;;;;23.65;5.93;;;8.90;99.90;;;;;;5052973;28;20492;-66
2022/10/06 07:01:14;;;;;;;12.73;3.22;;;9.00;99.90;;;;;;5051658;28;20092;-65
2022/10/06 07:03:46;;;;;;;12.02;3.53;;;9.00;99.90;;;;;;5035087;28;20119;-66
2022/10/06 07:06:29;;;;;;;11.38;2.97;;;9.10;99.90;;;;;;5051890;28;20120;-64
2022/10/06 07:08:57;;;;;;;12.68;3.28;;;9.10;99.90;;;;;;5051672;28;20060;-63
2022/10/06 07:11:33;;;;;;;11.35;3.10;;;9.10;99.90;;;;;;5036157;28;20048;-62
2022/10/06 07:14:02;;;;;;;10.43;3.17;;;9.20;99.90;;;;;;5051606;28;20139;-62
2022/10/06 07:25:07;;;;;;;;;;;9.50;99.90;;;;;;5052007;28;20041;-64
2022/10/06 07:27:45;;;;;;;19.27;4.07;;;9.60;99.90;;;;;;5081821;28;19921;-63
2022/10/06 07:30:17;;;;;;;13.57;3.35;;;9.50;99.90;;;;;;5052136;28;20068;-64
2022/10/06 07:32:46;;;;;;;15.27;3.42;;;9.70;99.90;;;;;;5052166;28;20055;-68
2022/10/06 07:35:13;;;;;;;15.88;3.80;;;9.70;99.90;;;;;;5051631;28;20048;-72
2022/10/06 07:37:39;;;;;;;13.85;3.40;;;9.80;99.90;;;;;;5052028;28;20072;-68
2022/10/06 07:40:07;;;;;;;138.02;100.30;;;9.90;99.90;;;;;;5054073;28;20415;-67
2022/10/06 07:42:46;;;;;;;88.50;63.75;;;9.90;99.90;;;;;;5071883;28;20387;-67
2022/10/06 07:48:01;;;;;;;18.90;6.82;;;10.20;99.90;;;;;;5070243;28;20072;-68
2022/10/06 07:50:27;;;;;;;12.75;3.72;;;10.30;99.90;;;;;;5055257;28;20049;-69
2022/10/06 07:52:54;;;;;;;15.48;2.92;;;10.40;99.90;;;;;;5055123;28;20447;-69
2022/10/06 07:55:21;;;;;;;10.55;2.95;;;10.50;99.90;;;;;;5055488;28;20472;-67
2022/10/06 07:57:50;;;;;;;26.80;4.90;;;10.60;99.90;;;;;;5056285;28;20045;-66
2022/10/06 08:00:19;;;;;;;11.82;3.53;;;10.70;99.90;;;;;;5056142;28;20473;-64
2022/10/06 08:02:47;;;;;;;16.50;4.07;;;10.70;99.90;;;;;;5054649;28;20048;-64
2022/10/06 08:05:14;;;;;;;12.23;3.40;;;10.80;99.90;;;;;;5056276;28;20038;-66
2022/10/06 08:07:43;;;;;;;13.27;3.42;;;10.90;99.90;;;;;;5054518;28;20090;-65
2022/10/06 08:10:10;;;;;;;12.02;3.42;;;11.00;99.90;;;;;;5038431;28;20503;-67
2022/10/06 08:12:39;;;;;;;12.93;3.58;;;11.10;99.90;;;;;;5056462;28;20122;-67
2022/10/06 08:15:10;;;;;;;14.23;3.33;;;11.10;99.90;;;;;;5055983;28;20045;-68
2022/10/06 08:17:37;;;;;;;15.77;3.40;;;11.20;99.90;;;;;;5055575;28;20314;-68
2022/10/06 08:20:08;;;;;;;13.20;3.65;;;11.30;99.90;;;;;;5055349;28;20118;-67
2022/10/06 08:22:35;;;;;;;17.17;3.17;;;11.40;99.90;;;;;;5039162;28;20053;-68
2022/10/06 08:25:02;;;;;;;194.27;151.70;;;11.50;99.90;;;;;;5054128;28;20041;-68
2022/10/06 08:27:33;;;;;;;27.95;15.70;;;11.60;99.90;;;;;;5038281;28;20037;-65
2022/10/06 08:30:01;;;;;;;13.70;5.80;;;11.70;99.90;;;;;;5055257;28;20041;-66
2022/10/06 08:32:28;;;;;;;17.08;5.18;;;11.70;99.90;;;;;;5054859;28;20372;-65
2022/10/06 08:34:55;;;;;;;11.75;3.75;;;11.70;99.90;;;;;;5055999;28;20052;-65
2022/10/06 08:37:23;;;;;;;13.30;3.13;;;11.80;99.90;;;;;;5037710;28;20041;-65
2022/10/06 08:39:50;;;;;;;12.73;4.25;;;11.90;99.90;;;;;;5053930;28;20102;-65
2022/10/06 08:42:41;;;;;;;14.13;3.60;;;12.00;99.90;;;;;;5055035;28;20041;-65
2022/10/06 08:45:13;;;;;;;16.00;3.42;;;12.10;99.90;;;;;;5054818;28;20037;-65
2022/10/06 08:47:48;;;;;;;11.52;2.55;;;12.20;99.90;;;;;;5054199;28;20460;-65
2022/10/06 08:50:16;;;;;;;14.55;3.03;;;12.20;99.90;;;;;;5053471;28;20084;-65
2022/10/06 08:52:51;;;;;;;10.38;3.38;;;12.30;99.90;;;;;;5053996;28;20045;-65
2022/10/06 08:55:38;;;;;;;8.57;3.58;;;12.40;99.90;;;;;;5055469;28;20045;-65
2022/10/06 08:58:16;;;;;;;13.23;3.72;;;12.50;99.90;;;;;;5055880;28;20052;-65
2022/10/06 09:00:43;;;;;;;13.05;3.45;;;12.60;99.90;;;;;;5054344;28;20041;-65
2022/10/06 09:03:17;;;;;;;13.00;3.53;;;12.60;99.90;;;;;;5054213;28;20098;-65
2022/10/06 09:05:43;;;;;;;13.05;3.13;;;12.70;99.90;;;;;;5053894;28;20045;-65
2022/10/06 09:08:33;;;;;;;16.60;4.63;;;12.70;99.90;;;;;;5054156;28;20049;-65
2022/10/06 09:11:44;;;;;;;14.40;3.65;;;12.80;99.90;;;;;;5038957;28;20041;-65
2022/10/06 09:14:42;;;;;;;30.55;5.22;;;12.80;99.90;;;;;;5053552;28;20045;-65
2022/10/06 09:17:11;;;;;;;11.85;3.30;;;12.90;99.90;;;;;;5039533;28;20053;-65
2022/10/06 09:19:49;;;;;;;17.63;4.57;;;12.90;99.90;;;;;;5053364;28;20040;-66
2022/10/06 09:22:20;;;;;;;17.83;3.60;;;13.00;99.90;;;;;;5053394;28;20053;-65
2022/10/06 09:24:54;;;;;;;16.20;4.13;;;13.10;99.90;;;;;;5053337;28;20045;-65
2022/10/06 09:27:24;;;;;;;12.40;3.53;;;13.10;99.90;;;;;;5037035;28;20052;-65
2022/10/06 09:29:51;;;;;;;14.88;5.15;;;13.20;99.90;;;;;;5036520;28;20041;-65
2022/10/06 09:32:19;;;;;;;19.20;6.28;;;13.30;99.90;;;;;;5052908;28;20076;-65
2022/10/06 09:34:51;;;;;;;14.35;4.68;;;13.40;99.90;;;;;;5053049;28;20477;-65
2022/10/06 09:37:18;;;;;;;17.52;4.18;;;13.40;99.90;;;;;;5052847;28;20048;-65
2022/10/06 09:39:49;;;;;;;12.57;4.30;;;13.50;99.90;;;;;;5036980;28;20048;-65
2022/10/06 09:42:34;;;;;;;15.32;4.22;;;13.60;99.90;;;;;;5052710;28;20479;-65
2022/10/06 09:45:06;;;;;;;16.85;3.95;;;13.60;99.90;;;;;;5038695;28;20083;-66
2022/10/06 09:47:43;;;;;;;11.52;3.88;;;13.70;99.90;;;;;;5053393;28;20056;-66
2022/10/06 09:50:16;;;;;;;16.75;3.95;;;13.80;99.90;;;;;;5052506;28;20037;-65
2022/10/06 09:53:04;;;;;;;13.63;4.05;;;13.80;99.90;;;;;;5036918;28;20385;-65
2022/10/06 09:55:32;;;;;;;17.42;4.65;;;13.90;99.90;;;;;;5052669;28;20049;-65
2022/10/06 09:57:59;;;;;;;22.70;5.03;;;14.00;99.90;;;;;;5052350;28;20396;-65
2022/10/06 10:00:30;;;;;;;12.65;3.35;;;14.00;99.90;;;;;;5035854;28;20049;-65
2022/10/06 10:03:05;;;;;;;25.10;5.90;;;14.10;99.90;;;;;;5051987;28;20044;-65
2022/10/06 10:05:33;;;;;;;19.25;3.88;;;14.10;99.90;;;;;;5052546;28;20116;-65
2022/10/06 10:08:18;;;;;;;18.90;4.78;;;14.20;99.90;;;;;;5052560;28;20044;-65
2022/10/06 10:10:45;;;;;;;19.77;4.88;;;14.30;99.90;;;;;;5036113;28;20041;-65
2022/10/06 10:13:41;;;;;;;17.17;4.15;;;14.30;99.90;;;;;;5054139;28;20143;-65
2022/10/06 10:16:15;;;;;;;20.98;4.72;;;14.30;99.90;;;;;;5054451;28;20460;-66
2022/10/06 10:18:45;;;;;;;11.98;4.35;;;14.40;99.90;;;;;;5052080;28;20388;-65
2022/10/06 10:21:11;;;;;;;19.88;4.43;;;14.40;99.90;;;;;;5052235;28;20053;-65
2022/10/06 10:23:41;;;;;;;15.73;5.15;;;14.50;99.90;;;;;;5035661;28;20045;-65
2022/10/06 10:26:45;;;;;;;12.40;3.55;;;14.60;99.90;;;;;;5052127;28;20048;-66
2022/10/06 10:29:15;;;;;;;15.38;4.13;;;14.60;99.90;;;;;;5053376;28;20044;-65
2022/10/06 10:32:16;;;;;;;12.90;3.17;;;14.60;99.90;;;;;;5052105;28;20045;-65
2022/10/06 10:34:43;;;;;;;15.63;4.47;;;14.70;99.90;;;;;;5051754;28;20135;-65
2022/10/06 10:37:16;;;;;;;14.20;4.18;;;14.80;99.90;;;;;;5054037;28;20359;-66
2022/10/06 10:40:08;;;;;;;17.10;4.90;;;14.90;99.90;;;;;;5053831;28;20099;-66
2022/10/06 10:42:40;;;;;;;13.23;4.45;;;15.00;99.90;;;;;;5039009;28;20072;-66
2022/10/06 10:45:17;;;;;;;15.98;3.10;;;15.10;99.90;;;;;;5052640;28;20072;-65
2022/10/06 10:47:44;;;;;;;13.73;3.78;;;15.10;99.90;;;;;;5052445;28;20045;-66
2022/10/06 10:50:20;;;;;;;22.20;10.30;;;15.20;99.90;;;;;;5051822;28;20053;-69
2022/10/06 10:52:48;;;;;;;17.45;5.38;;;15.30;99.90;;;;;;5052895;28;20060;-67
2022/10/06 10:55:22;;;;;;;16.27;4.80;;;15.30;99.90;;;;;;5051349;28;20040;-70
2022/10/06 10:57:49;;;;;;;13.95;4.18;;;15.30;99.90;;;;;;5053071;28;20064;-72
2022/10/06 11:00:21;;;;;;;11.40;3.35;;;15.30;99.90;;;;;;5051873;28;20356;-71
2022/10/06 11:02:50;;;;;;;10.80;4.22;;;15.40;99.90;;;;;;5035931;28;20094;-68
2022/10/06 11:05:51;;;;;;;16.13;4.22;;;15.40;99.90;;;;;;5035298;28;20373;-69
2022/10/06 11:08:42;;;;;;;20.38;4.53;;;15.40;99.90;;;;;;5051842;28;20381;-69
2022/10/06 11:11:25;;;;;;;23.20;4.85;;;15.50;99.90;;;;;;5053490;28;20060;-68
2022/10/06 11:13:52;;;;;;;12.68;3.50;;;15.50;99.90;;;;;;5053517;28;20041;-68
2022/10/06 11:16:31;;;;;;;15.85;4.18;;;15.60;99.90;;;;;;5055429;28;20041;-68
2022/10/06 11:19:01;;;;;;;12.45;3.22;;;15.60;99.90;;;;;;5057681;28;20041;-68
2022/10/06 11:21:51;;;;;;;17.33;5.35;;;15.70;99.90;;;;;;5057852;28;20045;-71
2022/10/06 11:24:40;;;;;;;12.50;3.95;;;15.70;99.90;;;;;;5053446;28;20041;-70
2022/10/06 11:27:48;;;;;;;25.77;4.40;;;15.70;99.90;;;;;;5055851;28;20052;-69
2022/10/06 11:30:18;;;;;;;11.80;4.03;;;15.80;99.90;;;;;;5055578;28;20435;-68
2022/10/06 11:33:12;;;;;;;10.23;3.13;;;15.90;99.90;;;;;;5055518;28;20444;-68
2022/10/06 11:35:41;;;;;;;14.77;3.40;;;15.90;99.90;;;;;;5055014;28;20037;-67
2022/10/06 11:38:14;;;;;;;14.85;4.70;;;15.90;99.90;;;;;;5038663;28;20057;-70
2022/10/06 11:41:07;;;;;;;14.57;3.55;;;16.00;99.90;;;;;;5055838;28;20045;-66
2022/10/06 11:43:59;;;;;;;11.85;4.45;;;16.10;99.90;;;;;;5056571;28;20056;-65
2022/10/06 11:46:39;;;;;;;9.40;3.30;;;16.30;99.90;;;;;;5050997;28;20078;-66
2022/10/06 11:49:29;;;;;;;10.95;4.70;;;16.30;99.90;;;;;;5055512;28;20052;-65
2022/10/06 11:52:05;;;;;;;11.90;4.00;;;16.40;99.90;;;;;;5056283;28;20388;-64
2022/10/06 11:54:47;;;;;;;13.38;3.53;;;16.50;99.90;;;;;;5056185;28;20049;-63
2022/10/06 11:57:34;;;;;;;10.95;3.75;;;16.60;99.90;;;;;;5054666;28;20049;-64
2022/10/06 12:00:01;;;;;;;16.35;4.90;;;16.70;99.90;;;;;;5054897;28;20385;-63
2022/10/06 12:02:33;;;;;;;20.58;4.32;;;16.80;99.90;;;;;;5055782;28;20049;-63
2022/10/06 12:05:13;;;;;;;14.32;4.05;;;16.90;99.90;;;;;;5054728;28;20094;-63
2022/10/06 12:08:00;;;;;;;15.82;4.00;;;17.00;99.90;;;;;;5056468;28;20449;-64
2022/10/06 12:10:27;;;;;;;13.40;3.80;;;17.10;99.90;;;;;;5055874;28;20052;-64
2022/10/06 12:13:12;;;;;;;12.20;3.42;;;17.20;99.90;;;;;;5056143;28;20057;-64
2022/10/06 12:16:11;;;;;;;12.88;3.78;;;17.30;99.90;;;;;;5056600;28;20135;-64
2022/10/06 12:19:04;;;;;;;10.80;4.13;;;17.50;99.90;;;;;;5054466;28;20065;-64
2022/10/06 12:21:49;;;;;;;13.13;4.05;;;17.60;99.90;;;;;;5054772;28;20139;-64
2022/10/06 12:24:40;;;;;;;14.77;4.10;;;17.60;99.90;;;;;;5055022;28;20052;-64
2022/10/06 12:27:49;;;;;;;11.30;3.55;;;17.70;99.90;;;;;;5038392;28;20045;-63
2022/10/06 12:30:21;;;;;;;14.35;3.13;;;17.80;99.90;;;;;;5033367;28;20041;-65
2022/10/06 12:32:58;;;;;;;17.50;3.42;;;17.80;99.90;;;;;;5052107;28;20037;-65
2022/10/06 12:35:35;;;;;;;15.48;3.38;;;17.80;99.90;;;;;;5037566;28;20044;-65
2022/10/06 12:38:25;;;;;;;12.45;3.83;;;17.80;99.90;;;;;;5038820;28;20144;-65
2022/10/06 12:40:54;;;;;;;19.30;4.35;;;17.80;99.90;;;;;;5056075;28;20044;-65
2022/10/06 12:43:21;;;;;;;;;;;17.80;99.90;;;;;;5037548;28;20041;-65
2022/10/06 12:45:58;;;;;;;13.00;3.03;;;17.80;99.90;;;;;;5054844;28;19920;-66
2022/10/06 12:48:44;;;;;;;8.93;3.50;;;17.90;99.90;;;;;;5054863;28;20164;-66
2022/10/06 12:51:26;;;;;;;16.45;4.18;;;18.00;99.90;;;;;;5054870;28;20044;-65
2022/10/06 12:53:55;;;;;;;22.70;9.35;;;18.00;99.90;;;;;;5055691;28;20124;-65
2022/10/06 12:56:27;;;;;;;19.27;7.05;;;17.90;99.90;;;;;;5055156;28;20049;-65
2022/10/06 12:58:54;;;;;;;18.75;5.57;;;18.00;99.90;;;;;;5054430;28;20049;-65
2022/10/06 13:01:21;;;;;;;17.63;5.63;;;18.10;99.90;;;;;;5054639;28;20045;-65
2022/10/06 13:03:49;;;;;;;11.85;3.35;;;18.20;99.90;;;;;;5053533;28;20052;-66
2022/10/06 13:06:22;;;;;;;9.32;3.20;;;18.20;99.90;;;;;;5053481;28;20465;-65
2022/10/06 13:09:03;;;;;;;9.38;2.78;;;18.20;99.90;;;;;;5053732;28;20155;-69
2022/10/06 13:11:30;;;;;;;10.38;3.20;;;18.20;99.90;;;;;;5054396;28;20041;-66
2022/10/06 13:14:08;;;;;;;43.17;5.20;;;18.10;99.90;;;;;;5055547;28;20056;-67
2022/10/06 13:16:39;;;;;;;14.52;3.20;;;18.00;99.90;;;;;;5037844;28;20404;-68